Key West, FL

10:02 AM EDT on September 02, 2014 (GMT -0400)
Big Coppitt Key Gulfside | Change Station
CLOSE
Current Station
Personal Weather Station
Location: Key West, FL
Elevation: 31 ft
Nearby Weather Stations

Elev 31 ft 24.60 °N, 81.67 °W | Updated 14 minutes ago

Scattered Clouds
Scattered Clouds
82.0 °F
Feels Like 89 °F
N
2.7
Wind Variable Wind from NNE

Today
High -- | Low -- °F
--% Chance of Precip.
Yesterday
High -- | Low -- °F
Precip. -- in
7:08 AM 7:43 PM
First Quarter, 51% visible
Pressure 30.04 in
Visibility 10.0 miles
Clouds Scattered Clouds 2200 ft
Scattered Clouds 8000 ft
Heat Index 89 °F
Dew Point 76 °F
Humidity 81%
Rainfall 0.00 in
Snow Depth Not available.
UV 5 out of 12
Pollen 4.70 out of 12
Air Quality Not available.
Flu Activity Not available.
METAR KNQX 021353Z 12007KT 090V160 10SM SCT022 SCT080 28/24 A3004 RMK AO2 RAB37E48 SLP172 T2 SET P0008 T02830244 $

More Conditions Fewer Conditions

Pressure 30.04 in
Visibility 10.0 miles
Clouds Scattered Clouds 2200 ft
Scattered Clouds 8000 ft
Heat Index 89 °F
Dew Point 76 °F
Humidity 81%
Rainfall 0.00 in
Snow Depth Not available.
UV 5 out of 12
Pollen 4.70 out of 12
Air Quality Not available.
Flu Activity Not available.
METAR KNQX 021353Z 12007KT 090V160 10SM SCT022 SCT080 28/24 A3004 RMK AO2 RAB37E48 SLP172 T2 SET P0008 T02830244 $

More Conditions Fewer Conditions

Nowcast | as of 9:21 am EDT on September 2, 2014

Through 1030 am...widely separated showers will affect the Florida Keys...as well as nearshore and offshore waters surrounding the island chain. These showers will move to the west-northwest at around 15 knots. The strongest showers will produce wind gusts near 25 knots and moderate rain...temporarily reducing the visibility to near three miles. Over land...the most likely area to see rainfall will be from Boca Chica to Sugarloaf Key. The majority of showers will be located over the western portion of the Florida Straits.

×

10-Day Weather Forecast

Almanac

Astronomy

Sep. 02, 2014 Rise Set
Actual Time 7:08 AM EDT 7:43 PM EDT
Civil Twilight 6:44 AM EDT 8:06 PM EDT
Nautical Twilight 6:17 AM EDT 8:33 PM EDT
Astronomical Twilight 5:50 AM EDT 9:01 PM EDT
Moon 2:07 PM EDT 12:27 AM EDT
Length of Visible Light 13h 22m
Length of Day
12h 35m
Tomorrow will be 1m 23s shorter.
First Quarter, 51% of the Moon is Illuminated
Today
First Quarter
Sep 8
Full
Sep 15
Last Quarter
Sep 24
New
Oct 1
First Quarter

Today's Extremes

State Highs State Lows

Community

WunderPhotos

Upload Photos

1,749,670 photos uploaded!

WunderBlogs® & News

Nearby

Snow Depth

Station Depth Elevation
No new snow has been reported.

Earthquake Activity

City Distance Mag. Time & Date
No recent earthquake activity has been reported nearby.
Minimum magnitude displayed is 2.5.

Coastal Water Temperatures

Place Temperature
Key West, FL 86.0 °F
Vaca Key, FL 87.1 °F

Nearby Weather Stations